ADDS METAR Data INFO
IDs: Format: Raw Decoded Include TAF

Data at: 0030 UTC 23 Oct 2017

KPOV 230014Z AUTO 00000KT 10SM CLR 17/10 A3016 RMK AO2 T01740095
KPOV 222354Z AUTO 00000KT 10SM CLR 17/10 A3016 RMK AO2 T01730096
KPOV 222333Z AUTO 10003KT 10SM CLR 18/10 A3016 RMK AO2 T01750095
KPOV 222314Z AUTO 00000KT 10SM CLR 19/09 A3016 RMK AO2 T01900092
KPOV 222254Z AUTO 14003KT 10SM CLR 20/09 A3016 RMK AO2 T01960091
KPOV 222233Z AUTO 13003KT 10SM CLR 20/09 A3016 RMK AO2 T02040088
KPOV 222214Z AUTO 14004KT 10SM CLR 21/08 A3016 RMK AO2 T02130082
KPOV 222153Z AUTO 15005KT 10SM CLR 22/08 A3015 RMK AO2 T02190081
KPOV 222133Z AUTO 14004KT 10SM CLR 23/08 A3015 RMK AO2 T02270079
KPOV 222114Z AUTO 15005KT 10SM CLR 23/08 A3015 RMK AO2 T02280078
KPOV 222053Z AUTO 14005KT 10SM CLR 23/08 A3015 RMK AO2 T02310082
KPOV 222034Z AUTO 15007KT 10SM CLR 23/08 A3015 RMK AO2 T02330076
KPOV 222014Z AUTO 16006KT 10SM CLR 23/08 A3016 RMK AO2 T02340075
KPOV 221953Z AUTO 14007KT 10SM CLR 24/07 A3017 RMK AO2 T02400074
KPOV 221934Z AUTO 17003KT 10SM CLR 24/07 A3017 RMK AO2 T02420067
KPOV 221914Z AUTO 17003KT 10SM CLR 24/06 A3018 RMK AO2 T02410064
KPOV 221853Z AUTO 15006KT 10SM CLR 24/08 A3019 RMK AO2 T02440080
KPOV 221833Z AUTO 16006KT 10SM CLR 24/08 A3020 RMK AO2 T02400076
KPOV 221814Z AUTO 19004KT 10SM CLR 24/07 A3021 RMK AO2 T02360072
KPOV 221753Z AUTO 16003KT 10SM CLR 23/08 A3022 RMK AO2 T02310082
KPOV 221733Z AUTO 23006KT 10SM CLR 23/08 A3023 RMK AO2 T02300081
KPOV 221714Z AUTO 18005KT 10SM CLR 22/08 A3024 RMK AO2 T02230081
KPOV 221653Z AUTO 21004KT 10SM CLR 22/09 A3024 RMK AO2 T02180092
KPOV 221633Z AUTO 19003KT 10SM CLR 21/10 A3025 RMK AO2 T02130104
KPOV 221614Z AUTO 21003KT 10SM CLR 20/11 A3026 RMK AO2 T02020105
KPOV 221553Z AUTO 21003KT 10SM CLR 19/10 A3027 RMK AO2 T01870101
KPOV 221533Z AUTO 00000KT 10SM CLR 18/10 A3027 RMK AO2 T01830104
KPOV 221514Z AUTO 00000KT 10SM CLR 18/10 A3027 RMK AO2 T01790102
KPOV 221453Z AUTO 22005KT 10SM CLR 18/10 A3027 RMK AO2 T01780104
KPOV 221433Z AUTO 19003KT 10SM CLR 17/10 A3027 RMK AO2 T01700104
KPOV 221414Z AUTO 00000KT 10SM CLR 16/10 A3027 RMK AO2 T01620104
KPOV 221354Z AUTO 18004KT 10SM CLR 15/10 A3027 RMK AO2 T01530102
KPOV 221333Z AUTO 18003KT 10SM CLR 15/11 A3027 RMK AO2 T01450106
KPOV 221314Z AUTO 00000KT 10SM CLR 14/10 A3027 RMK AO2 T01350102
KPOV 221253Z AUTO 12003KT 10SM CLR 12/10 A3027 RMK AO2 T01180099
KPOV 221233Z AUTO 11003KT 10SM CLR 11/09 A3027 RMK AO2 T01060090
KPOV 221214Z AUTO 00000KT 10SM CLR 10/09 A3027 RMK AO2 T00970085
KPOV 221153Z AUTO 11003KT 10SM CLR 10/09 A3026 RMK AO2 T00990086
KPOV 221133Z AUTO 12003KT 10SM CLR 09/08 A3026 RMK AO2 T00910082
KPOV 221114Z AUTO 11003KT 7SM CLR 09/08 A3026 RMK AO2 T00850079
KPOV 221053Z AUTO 09003KT 10SM CLR 09/08 A3027 RMK AO2 T00870082
KPOV 221034Z AUTO 09003KT 10SM CLR 09/08 A3027 RMK AO2 T00860081
KPOV 221014Z AUTO 09003KT 7SM CLR 08/07 A3027 RMK AO2 T00780073
KPOV 220954Z AUTO 09003KT 10SM CLR 08/07 A3027 RMK AO2 T00780073
KPOV 220933Z AUTO 08004KT 5SM BR CLR 07/07 A3027 RMK AO2 T00700065
KPOV 220913Z AUTO 09003KT 4SM BR CLR 07/06 A3026 RMK AO2 T00690064
KPOV 220853Z AUTO 09003KT 2 1/2SM BR CLR 07/07 A3027 RMK AO2 VIS 1 1/4V5 T00720067
KPOV 220833Z AUTO 11003KT 4SM BR CLR 08/07 A3026 RMK AO2 T00790074
KPOV 220814Z AUTO 00000KT 5SM BR CLR 08/08 A3025 RMK AO2 T00840079
KPOV 220753Z AUTO 00000KT 10SM CLR 09/09 A3025 RMK AO2 T00910085
KPOV 220733Z AUTO 00000KT 10SM CLR 09/09 A3025 RMK AO2 T00930085
KPOV 220714Z AUTO 00000KT 10SM CLR 10/08 A3025 RMK AO2 T00950082
KPOV 220653Z AUTO 00000KT 10SM CLR 10/09 A3025 RMK AO2 T01040087
KPOV 220634Z AUTO 11003KT 10SM CLR 11/09 A3024 RMK AO2 T01050090
KPOV 220613Z AUTO 00000KT 10SM CLR 12/10 A3024 RMK AO2 T01180096
KPOV 220553Z AUTO 00000KT 10SM CLR 12/09 A3023 RMK AO2 T01210093
KPOV 220533Z AUTO 00000KT 10SM CLR 11/09 A3023 RMK AO2 T01130092
KPOV 220513Z AUTO 00000KT 10SM CLR 13/09 A3023 RMK AO2 T01250094
KPOV 220454Z AUTO 00000KT 10SM CLR 12/09 A3024 RMK AO2 T01190091
KPOV 220433Z AUTO 00000KT 10SM CLR 13/09 A3024 RMK AO2 T01280092
KPOV 220413Z AUTO 00000KT 10SM CLR 11/08 A3024 RMK AO2 T01100082
KPOV 220353Z AUTO 00000KT 10SM CLR 10/09 A3025 RMK AO2 P0001 T01020086
KPOV 220333Z AUTO 00000KT 10SM CLR 11/09 A3025 RMK AO2 P0001 T01050088
KPOV 220313Z AUTO 00000KT 10SM CLR 10/08 A3025 RMK AO2 T00970080
KPOV 220253Z AUTO 00000KT 10SM CLR 11/09 A3025 RMK AO2 T01100086
KPOV 220233Z AUTO 00000KT 10SM CLR 10/08 A3025 RMK AO2 T01010078
KPOV 220213Z AUTO 00000KT 10SM CLR 12/09 A3025 RMK AO2 T01170085
KPOV 220153Z AUTO 00000KT 10SM CLR 12/08 A3025 RMK AO2 T01200084
KPOV 220133Z AUTO 00000KT 10SM CLR 12/08 A3026 RMK AO2 T01230084
KPOV 220113Z AUTO 00000KT 10SM CLR 13/09 A3027 RMK AO2 T01330086
KPOV 220053Z AUTO 00000KT 10SM CLR 13/08 A3027 RMK AO2 T01300084
KPOV 220033Z AUTO 00000KT 10SM CLR 13/09 A3026 RMK AO2 T01300085
KPOV 220013Z AUTO 00000KT 10SM CLR 14/08 A3026 RMK AO2 T01350083
KPOV 212353Z AUTO 00000KT 10SM CLR 15/08 A3026 RMK AO2 T01450082
KPOV 212333Z AUTO 00000KT 10SM CLR 16/08 A3026 RMK AO2 T01570080
KPOV 212313Z AUTO 00000KT 10SM CLR 17/08 A3025 RMK AO2 T01700077
KPOV 212254Z AUTO 00000KT 10SM CLR 18/07 A3025 RMK AO2 T01790074
KPOV 212233Z AUTO 00000KT 10SM CLR 19/07 A3025 RMK AO2 T01860070
KPOV 212213Z AUTO 00000KT 10SM CLR 19/07 A3025 RMK AO2 T01910071
KPOV 212153Z AUTO 00000KT 10SM CLR 19/07 A3025 RMK AO2 T01920070
KPOV 212133Z AUTO 00000KT 10SM CLR 20/07 A3025 RMK AO2 T01990066
KPOV 212113Z AUTO 18003KT 10SM CLR 21/06 A3025 RMK AO2 T02070059
KPOV 212053Z AUTO 16003KT 10SM CLR 22/06 A3025 RMK AO2 T02160057
KPOV 212033Z AUTO 18003KT 10SM CLR 22/05 A3025 RMK AO2 T02160053
KPOV 212013Z AUTO 16005KT 10SM CLR 22/07 A3025 RMK AO2 T02160068
KPOV 211953Z AUTO 14004KT 10SM CLR 21/06 A3025 RMK AO2 T02140062
KPOV 211933Z AUTO 14006KT 10SM CLR 22/07 A3025 RMK AO2 T02170068
KPOV 211913Z AUTO 18005KT 10SM CLR 21/06 A3025 RMK AO2 T02100064
KPOV 211853Z AUTO 14004KT 10SM CLR 21/07 A3025 RMK AO2 T02080073
KPOV 211833Z AUTO 14004KT 10SM CLR 20/07 A3025 RMK AO2 T02020071
KPOV 211813Z AUTO 15004KT 10SM CLR 20/07 A3026 RMK AO2 T02010071
KPOV 211753Z AUTO 00000KT 10SM CLR 20/07 A3027 RMK AO2 T02000070
KPOV 211733Z AUTO 15004KT 10SM CLR 20/08 A3027 RMK AO2 T01950079
KPOV 211713Z AUTO 11004KT 10SM CLR 19/08 A3027 RMK AO2 T01930079 PNO
KPOV 211653Z AUTO 00000KT 10SM CLR 19/07 A3028 RMK AO2 T01870073
KPOV 211633Z AUTO 00000KT 10SM CLR 18/07 A3029 RMK AO2 T01800073
KPOV 211613Z AUTO 00000KT 10SM CLR 17/07 A3029 RMK AO2 T01650070
KPOV 211553Z AUTO 00000KT 10SM CLR 16/07 A3030 RMK AO2 T01600072
KPOV 211533Z AUTO 00000KT 10SM CLR 16/08 A3030 RMK AO2 T01600079
KPOV 211513Z AUTO 11004KT 10SM CLR 16/07 A3030 RMK AO2 T01610070
KPOV 211453Z AUTO 12003KT 10SM CLR 16/07 A3030 RMK AO2 T01570071
KPOV 211433Z AUTO 00000KT 10SM CLR 16/08 A3030 RMK AO2 T01550075
KPOV 211413Z AUTO 00000KT 10SM CLR 14/07 A3030 RMK AO2 T01390068
KPOV 211353Z AUTO 09003KT 10SM CLR 13/08 A3030 RMK AO2 T01290076
KPOV 211333Z AUTO 00000KT 10SM CLR 12/08 A3030 RMK AO2 T01150078
KPOV 211313Z AUTO 00000KT 10SM CLR 11/08 A3030 RMK AO2 T01070075
KPOV 211253Z AUTO 00000KT 10SM CLR 08/07 A3030 RMK AO2 T00820065
KPOV 211233Z AUTO 00000KT 10SM CLR 07/05 A3029 RMK AO2 T00660047